Rhapsody Of The Seas — C6UA2 — position and weather

sailwx.info

Track history (hours):
 
Tides and Currents Weather Stations Pressure Air Temp Water Temp Dewpoint Dewpoint Depression Visibility Wind Speed Wind Dir Waves Ship Positions

Rhapsody Of The Seas

Last reported at 2017-Sep-20 14:32 UTC. Time now 2017-Sep-26 14:54 UTC.
Position N 37°13' E 024°49'.

Type: Passenger vessel. MMSI: 311805000.

Date/timePositionNaut miles runAvg speedWind from/ knotsBaromVisibWave heightAir tempDewpointWater temp
2017-Sep-20 14:32N 37°13' E 024°49'916.7
2017-Sep-20 14:01N 37°18' E 024°58'816.6
2017-Sep-20 13:30N 37°23' E 025°07'815.9
2017-Sep-20 13:00N 37°28' E 025°14'4 7.4
2017-Sep-20 12:30N 37°27' E 025°19'0 0.1
2017-Sep-20 11:55N 37°27' E 025°19'0 0.0
2017-Sep-20 11:28N 37°27' E 025°19'0 0.0
2017-Sep-20 10:58N 37°27' E 025°19'0 0.0
2017-Sep-20 10:22N 37°27' E 025°19'0 0.0
2017-Sep-20 09:58N 37°27' E 025°19'0 0.0
2017-Sep-20 09:28N 37°27' E 025°19'0 0.0
2017-Sep-20 08:58N 37°27' E 025°19'0 0.0
2017-Sep-20 08:28N 37°27' E 025°19'0 0.0
2017-Sep-20 07:58N 37°27' E 025°19'0 0.0
2017-Sep-20 07:25N 37°27' E 025°19'0 0.0
2017-Sep-20 06:58N 37°27' E 025°19'0 0.0
2017-Sep-20 06:28N 37°27' E 025°19'0 0.0
2017-Sep-20 05:58N 37°27' E 025°19'0 0.0
2017-Sep-20 05:28N 37°27' E 025°19'0 0.0
2017-Sep-20 04:58N 37°27' E 025°19'0 0.0
2017-Sep-20 04:28N 37°27' E 025°19'0 0.0
2017-Sep-20 03:55N 37°27' E 025°19'0 0.1
2017-Sep-20 03:30N 37°27' E 025°19'0 0.4
2017-Sep-20 03:00N 37°27' E 025°19'4 7.3
2017-Sep-20 02:30N 37°28' E 025°15'510.1
2017-Sep-20 02:00N 37°30' E 025°09'510.1
2017-Sep-20 01:30N 37°31' E 025°03'5 9.8
2017-Sep-20 01:00N 37°33' E 024°57'510.1
2017-Sep-20 00:30N 37°33' E 024°50'4610.2
2017-Sep-19 19:58N 37°35' E 023°52'611.8
2017-Sep-19 19:29N 37°38' E 023°46'510.6
2017-Sep-19 19:01N 37°42' E 023°41'510.8
2017-Sep-19 18:30N 37°47' E 023°38'510.5
2017-Sep-19 18:00N 37°52' E 023°36'5 9.5
2017-Sep-19 17:31N 37°56' E 023°37'0 0.8
2017-Sep-19 16:58N 37°56' E 023°38'0 0.0
2017-Sep-19 16:28N 37°56' E 023°38'0 0.0
2017-Sep-19 15:58N 37°56' E 023°38'0 0.0
2017-Sep-19 15:28N 37°56' E 023°38'0 0.0
2017-Sep-19 14:58N 37°56' E 023°38'0 0.0
2017-Sep-19 14:28N 37°56' E 023°38'0 0.1
2017-Sep-19 13:58N 37°56' E 023°38'0 0.0
2017-Sep-19 13:28N 37°56' E 023°38'0 0.0
2017-Sep-19 12:58N 37°56' E 023°38'0 0.0
2017-Sep-19 12:28N 37°56' E 023°38'0 0.0
2017-Sep-19 11:58N 37°56' E 023°38'0 0.0
2017-Sep-19 11:28N 37°56' E 023°38'0 0.0
2017-Sep-19 10:58N 37°56' E 023°38'0 0.0
2017-Sep-19 10:28N 37°56' E 023°38'0 0.0
2017-Sep-19 09:07N 37°56' E 023°38'0 0.0
2017-Sep-19 08:58N 37°56' E 023°38'1 2.8
2017-Sep-19 08:31N 37°56' E 023°36'2 3.5
2017-Sep-19 08:00N 37°54' E 023°37'917.0
2017-Sep-19 07:30N 37°46' E 023°41'816.5
2017-Sep-19 07:00N 37°39' E 023°45'816.0
2017-Sep-19 06:30N 37°31' E 023°45'816.8
2017-Sep-19 06:00N 37°22' E 023°44'816.8
2017-Sep-19 05:30N 37°14' E 023°41'817.0
2017-Sep-19 05:00N 37°06' E 023°38'917.2
2017-Sep-19 04:30N 36°58' E 023°35'917.8
2017-Sep-19 03:59N 36°49' E 023°30'817.9
2017-Sep-19 03:30N 36°42' E 023°26'16317.2
2017-Sep-18 18:00N 37°48' E 020°18'51211.2 330 / 181013.010.8 26.322.726.0
2017-Sep-16 20:15N 44°39' E 013°32'520.9
2017-Sep-16 20:00N 44°43' E 013°29'1121.0
2017-Sep-16 19:30N 44°52' E 013°21'1020.7
2017-Sep-16 19:00N 44°60' E 013°11'1020.5
2017-Sep-16 18:30N 45°07' E 013°00'1020.6
2017-Sep-16 18:00N 45°13' E 012°48'1020.3
2017-Sep-16 17:30N 45°19' E 012°37'918.0
2017-Sep-16 17:00N 45°25' E 012°27'4 7.6
2017-Sep-16 16:31N 45°25' E 012°22'2 4.6
2017-Sep-16 15:58N 45°26' E 012°18'0 0.7
2017-Sep-16 15:28N 45°26' E 012°19'0 0.0
2017-Sep-16 14:58N 45°26' E 012°19'0 0.0
2017-Sep-16 14:28N 45°26' E 012°19'0 0.0
2017-Sep-16 13:58N 45°26' E 012°19'0 0.0
2017-Sep-16 13:28N 45°26' E 012°19'0 0.0
2017-Sep-16 12:58N 45°26' E 012°19'0 0.0
2017-Sep-16 12:28N 45°26' E 012°19'0 0.0
2017-Sep-16 11:58N 45°26' E 012°19'0 0.0
2017-Sep-16 11:28N 45°26' E 012°19'0 0.0
2017-Sep-16 10:58N 45°26' E 012°19'0 0.0
2017-Sep-16 10:28N 45°26' E 012°19'0 0.0
2017-Sep-16 09:58N 45°26' E 012°19'0 0.0
2017-Sep-16 09:28N 45°26' E 012°19'0 0.0
2017-Sep-16 08:58N 45°26' E 012°19'0 0.0
2017-Sep-16 08:28N 45°26' E 012°19'0 0.0
2017-Sep-16 07:58N 45°26' E 012°19'0 0.0
2017-Sep-16 07:28N 45°26' E 012°19'0 0.0
2017-Sep-16 06:58N 45°26' E 012°19'0 0.0
2017-Sep-16 06:28N 45°26' E 012°19'0 0.0
2017-Sep-16 05:58N 45°26' E 012°19'0 0.0
2017-Sep-16 05:28N 45°26' E 012°19'0 0.0
2017-Sep-16 04:58N 45°26' E 012°19'0 0.0
2017-Sep-16 04:30N 45°26' E 012°19'1 2.6
2017-Sep-16 04:00N 45°26' E 012°20'3 5.7
2017-Sep-16 03:30N 45°26' E 012°24'612.5
2017-Sep-16 03:00N 45°23' E 012°32'815.1
2017-Sep-16 02:30N 45°17' E 012°40'815.1
2017-Sep-16 02:00N 45°13' E 012°49'816.2
2017-Sep-16 01:30N 45°08' E 012°58'816.2
2017-Sep-16 01:00N 45°04' E 013°07'816.2
2017-Sep-16 00:30N 44°60' E 013°17'815.9
2017-Sep-16 00:00N 44°53' E 013°24'816.0
2017-Sep-15 23:30N 44°47' E 013°30'816.0
2017-Sep-15 23:00N 44°40' E 013°37'815.7
2017-Sep-15 22:30N 44°34' E 013°43'816.1
2017-Sep-15 22:00N 44°27' E 013°49'816.3
2017-Sep-15 21:30N 44°20' E 013°55'816.0
2017-Sep-15 21:00N 44°13' E 014°02'41117.0
2017-Sep-14 20:50N 38°54' E 019°47'617.2
2017-Sep-14 20:30N 38°49' E 019°51'917.0
2017-Sep-14 20:00N 38°42' E 019°56'1217.0
2017-Sep-14 19:19N 38°31' E 020°03'517.2
2017-Sep-14 19:01N 38°27' E 020°06'1317.0
2017-Sep-14 18:13N 38°15' E 020°13'  
2017-Sep-11 18:00N 42°00' E 018°36'   160 / 351000.010.8 23.018.225.0
Track history (hours):
 
Tides and Currents Weather Stations Pressure Air Temp Water Temp Dewpoint Dewpoint Depression Visibility Wind Speed Wind Dir Waves Ship Positions

Rhapsody Of The Seas

Last reported at 2017-Sep-20 14:32 UTC. Time now 2017-Sep-26 14:54 UTC.
Position N 37°13' E 024°49'.

Type: Passenger vessel. MMSI: 311805000.

Date/timePositionNaut miles runAvg speedWind from/ knotsBaromVisibWave heightAir tempDewpointWater temp
2017-Sep-20 14:32N 37°13' E 024°49'916.7
2017-Sep-20 14:01N 37°18' E 024°58'816.6
2017-Sep-20 13:30N 37°23' E 025°07'815.9
2017-Sep-20 13:00N 37°28' E 025°14'4 7.4
2017-Sep-20 12:30N 37°27' E 025°19'0 0.1
2017-Sep-20 11:55N 37°27' E 025°19'0 0.0
2017-Sep-20 11:28N 37°27' E 025°19'0 0.0
2017-Sep-20 10:58N 37°27' E 025°19'0 0.0
2017-Sep-20 10:22N 37°27' E 025°19'0 0.0
2017-Sep-20 09:58N 37°27' E 025°19'0 0.0
2017-Sep-20 09:28N 37°27' E 025°19'0 0.0
2017-Sep-20 08:58N 37°27' E 025°19'0 0.0
2017-Sep-20 08:28N 37°27' E 025°19'0 0.0
2017-Sep-20 07:58N 37°27' E 025°19'0 0.0
2017-Sep-20 07:25N 37°27' E 025°19'0 0.0
2017-Sep-20 06:58N 37°27' E 025°19'0 0.0
2017-Sep-20 06:28N 37°27' E 025°19'0 0.0
2017-Sep-20 05:58N 37°27' E 025°19'0 0.0
2017-Sep-20 05:28N 37°27' E 025°19'0 0.0
2017-Sep-20 04:58N 37°27' E 025°19'0 0.0
2017-Sep-20 04:28N 37°27' E 025°19'0 0.0
2017-Sep-20 03:55N 37°27' E 025°19'0 0.1
2017-Sep-20 03:30N 37°27' E 025°19'0 0.4
2017-Sep-20 03:00N 37°27' E 025°19'4 7.3
2017-Sep-20 02:30N 37°28' E 025°15'510.1
2017-Sep-20 02:00N 37°30' E 025°09'510.1
2017-Sep-20 01:30N 37°31' E 025°03'5 9.8
2017-Sep-20 01:00N 37°33' E 024°57'510.1
2017-Sep-20 00:30N 37°33' E 024°50'4610.2
2017-Sep-19 19:58N 37°35' E 023°52'611.8
2017-Sep-19 19:29N 37°38' E 023°46'510.6
2017-Sep-19 19:01N 37°42' E 023°41'510.8
2017-Sep-19 18:30N 37°47' E 023°38'510.5
2017-Sep-19 18:00N 37°52' E 023°36'5 9.5
2017-Sep-19 17:31N 37°56' E 023°37'0 0.8
2017-Sep-19 16:58N 37°56' E 023°38'0 0.0
2017-Sep-19 16:28N 37°56' E 023°38'0 0.0
2017-Sep-19 15:58N 37°56' E 023°38'0 0.0
2017-Sep-19 15:28N 37°56' E 023°38'0 0.0
2017-Sep-19 14:58N 37°56' E 023°38'0 0.0
2017-Sep-19 14:28N 37°56' E 023°38'0 0.1
2017-Sep-19 13:58N 37°56' E 023°38'0 0.0
2017-Sep-19 13:28N 37°56' E 023°38'0 0.0
2017-Sep-19 12:58N 37°56' E 023°38'0 0.0
2017-Sep-19 12:28N 37°56' E 023°38'0 0.0
2017-Sep-19 11:58N 37°56' E 023°38'0 0.0
2017-Sep-19 11:28N 37°56' E 023°38'0 0.0
2017-Sep-19 10:58N 37°56' E 023°38'0 0.0
2017-Sep-19 10:28N 37°56' E 023°38'0 0.0
2017-Sep-19 09:07N 37°56' E 023°38'0 0.0
2017-Sep-19 08:58N 37°56' E 023°38'1 2.8
2017-Sep-19 08:31N 37°56' E 023°36'2 3.5
2017-Sep-19 08:00N 37°54' E 023°37'917.0
2017-Sep-19 07:30N 37°46' E 023°41'816.5
2017-Sep-19 07:00N 37°39' E 023°45'816.0
2017-Sep-19 06:30N 37°31' E 023°45'816.8
2017-Sep-19 06:00N 37°22' E 023°44'816.8
2017-Sep-19 05:30N 37°14' E 023°41'817.0
2017-Sep-19 05:00N 37°06' E 023°38'917.2
2017-Sep-19 04:30N 36°58' E 023°35'917.8
2017-Sep-19 03:59N 36°49' E 023°30'817.9
2017-Sep-19 03:30N 36°42' E 023°26'16317.2
2017-Sep-18 18:00N 37°48' E 020°18'51211.2 330 / 181013.010.8 26.322.726.0
2017-Sep-16 20:15N 44°39' E 013°32'520.9
2017-Sep-16 20:00N 44°43' E 013°29'1121.0
2017-Sep-16 19:30N 44°52' E 013°21'1020.7
2017-Sep-16 19:00N 44°60' E 013°11'1020.5
2017-Sep-16 18:30N 45°07' E 013°00'1020.6
2017-Sep-16 18:00N 45°13' E 012°48'1020.3
2017-Sep-16 17:30N 45°19' E 012°37'918.0
2017-Sep-16 17:00N 45°25' E 012°27'4 7.6
2017-Sep-16 16:31N 45°25' E 012°22'2 4.6
2017-Sep-16 15:58N 45°26' E 012°18'0 0.7
2017-Sep-16 15:28N 45°26' E 012°19'0 0.0
2017-Sep-16 14:58N 45°26' E 012°19'0 0.0
2017-Sep-16 14:28N 45°26' E 012°19'0 0.0
2017-Sep-16 13:58N 45°26' E 012°19'0 0.0
2017-Sep-16 13:28N 45°26' E 012°19'0 0.0
2017-Sep-16 12:58N 45°26' E 012°19'0 0.0
2017-Sep-16 12:28N 45°26' E 012°19'0 0.0
2017-Sep-16 11:58N 45°26' E 012°19'0 0.0
2017-Sep-16 11:28N 45°26' E 012°19'0 0.0
2017-Sep-16 10:58N 45°26' E 012°19'0 0.0
2017-Sep-16 10:28N 45°26' E 012°19'0 0.0
2017-Sep-16 09:58N 45°26' E 012°19'0 0.0
2017-Sep-16 09:28N 45°26' E 012°19'0 0.0
2017-Sep-16 08:58N 45°26' E 012°19'0 0.0
2017-Sep-16 08:28N 45°26' E 012°19'0 0.0
2017-Sep-16 07:58N 45°26' E 012°19'0 0.0
2017-Sep-16 07:28N 45°26' E 012°19'0 0.0
2017-Sep-16 06:58N 45°26' E 012°19'0 0.0
2017-Sep-16 06:28N 45°26' E 012°19'0 0.0
2017-Sep-16 05:58N 45°26' E 012°19'0 0.0
2017-Sep-16 05:28N 45°26' E 012°19'0 0.0
2017-Sep-16 04:58N 45°26' E 012°19'0 0.0
2017-Sep-16 04:30N 45°26' E 012°19'1 2.6
2017-Sep-16 04:00N 45°26' E 012°20'3 5.7
2017-Sep-16 03:30N 45°26' E 012°24'612.5
2017-Sep-16 03:00N 45°23' E 012°32'815.1
2017-Sep-16 02:30N 45°17' E 012°40'815.1
2017-Sep-16 02:00N 45°13' E 012°49'816.2
2017-Sep-16 01:30N 45°08' E 012°58'816.2
2017-Sep-16 01:00N 45°04' E 013°07'816.2
2017-Sep-16 00:30N 44°60' E 013°17'815.9
2017-Sep-16 00:00N 44°53' E 013°24'816.0
2017-Sep-15 23:30N 44°47' E 013°30'816.0
2017-Sep-15 23:00N 44°40' E 013°37'815.7
2017-Sep-15 22:30N 44°34' E 013°43'816.1
2017-Sep-15 22:00N 44°27' E 013°49'816.3
2017-Sep-15 21:30N 44°20' E 013°55'816.0
2017-Sep-15 21:00N 44°13' E 014°02'41117.0
2017-Sep-14 20:50N 38°54' E 019°47'617.2
2017-Sep-14 20:30N 38°49' E 019°51'917.0
2017-Sep-14 20:00N 38°42' E 019°56'1217.0
2017-Sep-14 19:19N 38°31' E 020°03'517.2
2017-Sep-14 19:01N 38°27' E 020°06'1317.0
2017-Sep-14 18:13N 38°15' E 020°13'  
2017-Sep-11 18:00N 42°00' E 018°36'   160 / 351000.010.8 23.018.225.0

Dump ship's entire track history